Time;durP1;ratioP1;P1;durP2;ratioP2;P2;SDS_P1;SDS_P2;PMS_P1;PMS_P2;Temp;Humidity;BMP_temperature;BMP_pressure;BME280_temperature;BME280_humidity;BME280_pressure;Samples;Min_cycle;Max_cycle;Signal;HPM_P1;HPM_P2
2021/01/10 00:00:14;;;;;;;57.63;23.42;;;-7.70;99.90;;;;;;6246806;22;20042;-75
2021/01/10 00:02:41;;;;;;;51.50;24.05;;;-7.80;99.90;;;;;;6246889;23;20067;-75
2021/01/10 00:05:30;;;;;;;44.55;20.25;;;-7.80;99.90;;;;;;6246589;23;20077;-75
2021/01/10 00:07:56;;;;;;;49.10;21.88;;;-7.90;99.90;;;;;;6246711;23;20031;-75
2021/01/10 00:10:23;;;;;;;50.78;22.63;;;-7.90;99.90;;;;;;6246328;22;20014;-75
2021/01/10 00:12:48;;;;;;;49.58;21.00;;;-8.00;99.90;;;;;;6246520;23;20058;-76
2021/01/10 00:15:16;;;;;;;53.78;24.65;;;-8.00;99.90;;;;;;6219659;23;20012;-75
2021/01/10 00:17:44;;;;;;;49.67;22.33;;;-8.00;99.90;;;;;;6246504;23;20075;-75
2021/01/10 00:20:11;;;;;;;49.17;22.73;;;-8.00;99.90;;;;;;6246135;22;20007;-75
2021/01/10 00:22:37;;;;;;;55.97;24.38;;;-8.10;99.90;;;;;;6246264;23;20000;-75
2021/01/10 00:25:06;;;;;;;51.58;23.40;;;-8.10;99.90;;;;;;6246208;23;19997;-75
2021/01/10 00:27:31;;;;;;;50.25;21.63;;;-8.20;99.90;;;;;;6246235;23;20058;-75
2021/01/10 00:29:58;;;;;;;46.03;21.25;;;-8.20;99.90;;;;;;6246206;23;20012;-75
2021/01/10 00:32:23;;;;;;;45.30;20.83;;;-8.30;99.90;;;;;;6246161;22;20008;-75
2021/01/10 00:34:49;;;;;;;47.17;21.13;;;-8.40;99.90;;;;;;6246200;23;20446;-75
2021/01/10 00:37:20;;;;;;;45.15;22.65;;;-8.40;99.90;;;;;;6219236;23;20004;-75
2021/01/10 00:39:47;;;;;;;52.17;21.55;;;-8.40;99.90;;;;;;6246463;23;20007;-75
2021/01/10 00:42:14;;;;;;;44.72;20.52;;;-8.50;99.90;;;;;;6246067;22;20035;-75
2021/01/10 00:44:41;;;;;;;43.25;21.10;;;-8.50;99.90;;;;;;6245949;23;20000;-75
2021/01/10 00:47:07;;;;;;;42.67;19.08;;;-8.50;99.90;;;;;;6244670;23;20083;-75
2021/01/10 00:49:33;;;;;;;38.22;18.75;;;-8.60;99.90;;;;;;6219442;23;20036;-75
2021/01/10 00:51:58;;;;;;;39.97;21.10;;;-8.60;99.90;;;;;;6236397;23;20074;-75
2021/01/10 00:54:24;;;;;;;44.55;20.95;;;-8.60;99.90;;;;;;6244473;23;20083;-75
2021/01/10 00:56:49;;;;;;;45.95;22.95;;;-8.60;99.90;;;;;;6244589;23;20004;-75
2021/01/10 00:59:15;;;;;;;47.97;22.90;;;-8.60;99.90;;;;;;6246127;23;20452;-75
2021/01/10 01:01:41;;;;;;;50.28;21.23;;;-8.50;99.90;;;;;;6244335;22;20079;-75
2021/01/10 01:04:07;;;;;;;45.72;21.75;;;-8.50;99.90;;;;;;6218973;23;20041;-75
2021/01/10 01:06:33;;;;;;;44.08;19.98;;;-8.50;99.90;;;;;;6244458;23;19996;-75
2021/01/10 01:08:58;;;;;;;53.17;22.00;;;-8.40;99.90;;;;;;6246353;23;20028;-75
2021/01/10 01:11:35;;;;;;;62.42;27.67;;;-8.40;99.90;;;;;;6218960;23;20035;-75
2021/01/10 01:14:01;;;;;;;67.22;26.90;;;-8.30;99.90;;;;;;6246245;23;20083;-75
2021/01/10 01:16:26;;;;;;;71.82;27.40;;;-8.10;99.90;;;;;;6244315;23;20003;-75
2021/01/10 01:18:52;;;;;;;63.05;26.73;;;-8.00;99.90;;;;;;6245982;23;20005;-75
2021/01/10 01:21:19;;;;;;;60.55;26.08;;;-7.80;99.90;;;;;;6218989;23;20079;-75
2021/01/10 01:23:45;;;;;;;65.60;26.92;;;-7.70;99.90;;;;;;6245902;23;20071;-75
2021/01/10 01:26:19;;;;;;;66.43;27.50;;;-7.60;99.90;;;;;;6246411;23;20332;-75
2021/01/10 01:28:46;;;;;;;107.78;30.15;;;-7.50;99.90;;;;;;6218999;23;20028;-75
2021/01/10 01:31:26;;;;;;;106.05;32.85;;;-7.30;99.90;;;;;;6245764;22;20011;-75
2021/01/10 01:33:52;;;;;;;71.30;28.20;;;-7.20;99.90;;;;;;6245920;23;20007;-75
2021/01/10 01:36:23;;;;;;;72.35;27.50;;;-7.10;99.90;;;;;;6245968;23;20115;-74
2021/01/10 01:38:52;;;;;;;73.57;29.23;;;-7.00;99.90;;;;;;6246142;23;19993;-74
2021/01/10 01:41:18;;;;;;;71.70;29.23;;;-6.90;99.90;;;;;;6218961;23;20274;-75
2021/01/10 01:43:44;;;;;;;72.85;28.13;;;-6.90;99.90;;;;;;6245835;23;20004;-75
2021/01/10 01:46:11;;;;;;;62.67;25.88;;;-6.80;99.90;;;;;;6245842;23;20071;-75
2021/01/10 01:48:39;;;;;;;69.60;28.35;;;-6.80;99.90;;;;;;6245876;23;20000;-75
2021/01/10 01:51:05;;;;;;;66.82;27.75;;;-6.70;99.90;;;;;;6245783;22;20004;-75
2021/01/10 01:53:31;;;;;;;48.03;22.33;;;-6.70;99.90;;;;;;6246098;23;20008;-75
2021/01/10 01:55:58;;;;;;;50.90;24.55;;;-6.70;99.90;;;;;;6245862;23;20032;-75
2021/01/10 01:58:24;;;;;;;44.20;21.23;;;-6.80;99.90;;;;;;6245397;23;19996;-75
2021/01/10 02:00:50;;;;;;;50.35;23.33;;;-7.00;99.90;;;;;;6245384;22;20011;-75
2021/01/10 02:03:38;;;;;;;44.38;21.17;;;-7.00;99.90;;;;;;6245902;23;20428;-75
2021/01/10 02:06:13;;;;;;;50.38;21.48;;;-7.10;99.90;;;;;;6245701;23;19996;-75
2021/01/10 02:08:39;;;;;;;50.38;23.30;;;-7.00;99.90;;;;;;6244186;23;20054;-75
2021/01/10 02:11:07;;;;;;;56.30;23.50;;;-7.10;99.90;;;;;;6218766;23;20005;-76
2021/01/10 02:13:36;;;;;;;83.85;26.42;;;-7.10;99.90;;;;;;6245800;23;20424;-75
2021/01/10 02:16:02;;;;;;;79.57;27.25;;;-7.20;99.90;;;;;;6244817;23;20454;-75
2021/01/10 02:18:33;;;;;;;54.75;22.88;;;-7.30;99.90;;;;;;6247674;23;20000;-75
2021/01/10 02:21:06;;;;;;;60.35;25.20;;;-7.40;99.90;;;;;;6247590;22;20440;-75
2021/01/10 02:23:32;;;;;;;67.82;24.95;;;-7.40;99.90;;;;;;6247633;23;20343;-75
2021/01/10 02:25:59;;;;;;;64.28;23.10;;;-7.40;99.90;;;;;;6247856;23;20054;-75
2021/01/10 02:28:27;;;;;;;60.13;24.02;;;-7.30;99.90;;;;;;6247523;23;20119;-75
2021/01/10 02:30:54;;;;;;;58.60;24.60;;;-7.30;99.90;;;;;;6247533;22;20007;-75
2021/01/10 02:33:54;;;;;;;65.20;26.70;;;-7.30;99.90;;;;;;6247574;23;20007;-75
2021/01/10 02:36:31;;;;;;;63.80;25.23;;;-7.20;99.90;;;;;;6180394;23;20062;-75
2021/01/10 02:39:17;;;;;;;114.25;28.25;;;-7.20;99.90;;;;;;6247783;23;20008;-75
2021/01/10 02:41:46;;;;;;;66.47;24.65;;;-7.20;99.90;;;;;;6247424;22;20046;-75
2021/01/10 02:44:30;;;;;;;66.65;26.75;;;-7.20;99.90;;;;;;6247444;23;20000;-75
2021/01/10 02:46:56;;;;;;;87.30;26.73;;;-7.20;99.90;;;;;;6247852;23;20324;-76
2021/01/10 02:49:22;;;;;;;74.45;25.80;;;-7.20;99.90;;;;;;6221263;23;20004;-75
2021/01/10 02:51:52;;;;;;;69.47;24.77;;;-7.20;99.90;;;;;;6220736;23;20016;-75
2021/01/10 02:54:18;;;;;;;74.00;25.05;;;-7.20;99.90;;;;;;6247469;23;20066;-75
2021/01/10 02:57:00;;;;;;;79.43;28.40;;;-7.20;99.90;;;;;;6247300;23;20004;-75
2021/01/10 02:59:28;;;;;;;78.97;31.37;;;-7.10;99.90;;;;;;6247424;23;20386;-75
2021/01/10 03:01:58;;;;;;;71.70;25.30;;;-7.10;99.90;;;;;;6220205;23;20231;-75
2021/01/10 03:04:24;;;;;;;68.13;30.90;;;-7.10;99.90;;;;;;6247421;23;20011;-75
2021/01/10 03:06:54;;;;;;;72.70;27.83;;;-7.10;99.90;;;;;;6247639;23;20050;-75
2021/01/10 03:09:21;;;;;;;54.55;25.35;;;-7.10;99.90;;;;;;6247556;23;20023;-75
2021/01/10 03:11:46;;;;;;;74.85;24.58;;;-7.10;99.90;;;;;;6247830;22;20010;-75
2021/01/10 03:14:12;;;;;;;86.75;27.00;;;-7.00;99.90;;;;;;6220269;23;20035;-75
2021/01/10 03:16:38;;;;;;;73.85;25.83;;;-7.00;99.90;;;;;;6247211;23;20007;-75
2021/01/10 03:19:03;;;;;;;56.55;23.40;;;-7.00;99.90;;;;;;6220204;23;20010;-75
2021/01/10 03:21:29;;;;;;;84.43;26.38;;;-7.00;99.90;;;;;;6247330;22;20034;-75
2021/01/10 03:23:55;;;;;;;57.45;24.38;;;-6.90;99.90;;;;;;6220445;23;20001;-75
2021/01/10 03:26:23;;;;;;;67.43;25.25;;;-6.90;99.90;;;;;;6247536;23;20066;-75
2021/01/10 03:28:49;;;;;;;66.57;24.60;;;-6.90;99.90;;;;;;6247710;23;20000;-75
2021/01/10 03:31:14;;;;;;;111.90;27.25;;;-6.80;99.90;;;;;;6247006;22;20053;-75
2021/01/10 03:33:45;;;;;;;67.32;26.60;;;-6.80;99.90;;;;;;6247001;23;20454;-75
2021/01/10 03:36:15;;;;;;;59.22;24.85;;;-6.80;99.90;;;;;;6246951;23;20431;-75
2021/01/10 03:38:41;;;;;;;66.20;26.10;;;-6.80;99.90;;;;;;6219903;23;20003;-75
2021/01/10 03:41:07;;;;;;;55.13;23.92;;;-6.80;99.90;;;;;;6246854;22;20042;-75
2021/01/10 03:43:33;;;;;;;57.08;24.65;;;-6.80;99.90;;;;;;6246881;23;19996;-75
2021/01/10 03:46:00;;;;;;;50.20;22.25;;;-6.70;99.90;;;;;;6247133;23;20049;-75
2021/01/10 03:48:26;;;;;;;62.28;27.63;;;-6.60;99.90;;;;;;6219954;23;20004;-75
2021/01/10 03:50:51;;;;;;;52.85;23.58;;;-6.60;99.90;;;;;;6246403;22;20331;-75
2021/01/10 03:53:17;;;;;;;54.97;23.73;;;-6.50;99.90;;;;;;6246739;23;20079;-75
2021/01/10 03:55:42;;;;;;;57.17;24.27;;;-6.50;99.90;;;;;;6246620;23;20051;-75
2021/01/10 03:58:08;;;;;;;61.95;25.35;;;-6.50;99.90;;;;;;6247314;23;20011;-75
2021/01/10 04:00:33;;;;;;;53.78;24.35;;;-6.50;99.90;;;;;;6246487;22;20044;-75
2021/01/10 04:02:59;;;;;;;53.53;23.70;;;-6.60;99.90;;;;;;6219680;23;20000;-74
2021/01/10 04:05:24;;;;;;;48.80;22.23;;;-6.70;99.90;;;;;;6246675;23;20308;-74
2021/01/10 04:07:50;;;;;;;55.83;23.48;;;-6.80;99.90;;;;;;6246441;23;20027;-75
2021/01/10 04:10:15;;;;;;;59.22;22.75;;;-6.90;99.90;;;;;;6219588;22;20004;-74
2021/01/10 04:12:41;;;;;;;49.88;20.42;;;-7.00;99.90;;;;;;6219524;23;20019;-75
2021/01/10 04:15:07;;;;;;;46.80;20.55;;;-7.10;99.90;;;;;;6246386;23;20067;-75
2021/01/10 04:17:32;;;;;;;49.00;20.75;;;-7.20;99.90;;;;;;6246249;23;20027;-75
2021/01/10 04:19:58;;;;;;;45.58;20.70;;;-7.30;99.90;;;;;;6219379;23;20004;-75
2021/01/10 04:22:24;;;;;;;59.63;23.33;;;-7.30;99.90;;;;;;6246242;22;20057;-74
2021/01/10 04:24:51;;;;;;;49.58;23.17;;;-7.40;99.90;;;;;;6246299;23;20336;-75
2021/01/10 04:27:16;;;;;;;53.83;23.73;;;-7.50;99.90;;;;;;6246282;23;19996;-75
2021/01/10 04:29:42;;;;;;;63.22;24.35;;;-7.50;99.90;;;;;;6244583;23;20087;-75
2021/01/10 04:32:08;;;;;;;92.15;30.70;;;-7.50;99.90;;;;;;6219255;23;20022;-75
2021/01/10 04:34:33;;;;;;;72.47;27.77;;;-7.50;99.90;;;;;;6246143;23;20376;-74
2021/01/10 04:36:59;;;;;;;66.22;25.20;;;-7.60;99.90;;;;;;6246175;23;20447;-75
2021/01/10 04:39:25;;;;;;;57.17;23.45;;;-7.60;99.90;;;;;;6244174;23;20134;-75
2021/01/10 04:41:51;;;;;;;59.72;24.13;;;-7.60;99.90;;;;;;6246082;22;19996;-75
2021/01/10 04:44:17;;;;;;;56.22;24.52;;;-7.70;99.90;;;;;;6244497;23;20004;-75
2021/01/10 04:46:42;;;;;;;53.20;23.23;;;-7.70;99.90;;;;;;6219069;23;20000;-75
2021/01/10 04:49:09;;;;;;;58.72;23.88;;;-7.60;99.90;;;;;;6219174;23;20010;-74
2021/01/10 04:51:39;;;;;;;56.15;24.48;;;-7.60;99.90;;;;;;6256812;22;20085;-76
2021/01/10 04:54:07;;;;;;;52.42;22.05;;;-7.60;99.90;;;;;;6249563;22;20074;-76
2021/01/10 04:56:35;;;;;;;60.33;25.25;;;-7.60;99.90;;;;;;6276478;22;20000;-75
2021/01/10 04:59:03;;;;;;;57.28;23.48;;;-7.60;99.90;;;;;;6276496;22;20331;-76
2021/01/10 05:01:50;;;;;;;56.47;24.02;;;-7.60;99.90;;;;;;6239298;23;19997;-76
2021/01/10 05:04:17;;;;;;;59.92;22.83;;;-7.50;99.90;;;;;;6245917;23;20424;-76
2021/01/10 05:06:43;;;;;;;50.55;21.98;;;-7.50;99.90;;;;;;6246247;23;20008;-76
2021/01/10 05:09:09;;;;;;;59.33;22.73;;;-7.50;99.90;;;;;;6245869;23;20379;-75
2021/01/10 05:11:35;;;;;;;47.00;21.50;;;-7.40;99.90;;;;;;6245801;22;20000;-75
2021/01/10 05:14:02;;;;;;;52.85;22.35;;;-7.40;99.90;;;;;;6219003;23;20062;-76
2021/01/10 05:16:32;;;;;;;48.45;21.08;;;-7.40;99.90;;;;;;6246103;23;20004;-76
2021/01/10 05:18:59;;;;;;;49.00;21.63;;;-7.30;99.90;;;;;;6245856;23;20000;-75
2021/01/10 05:21:25;;;;;;;45.22;21.08;;;-7.30;99.90;;;;;;6244259;23;20007;-76
2021/01/10 05:23:57;;;;;;;50.72;23.48;;;-7.30;99.90;;;;;;6245977;23;19996;-76
2021/01/10 05:26:30;;;;;;;43.08;19.98;;;-7.20;99.90;;;;;;6246099;23;20003;-76
2021/01/10 05:29:03;;;;;;;40.47;18.60;;;-7.20;99.90;;;;;;6219096;23;20083;-76
2021/01/10 05:31:43;;;;;;;54.88;22.02;;;-7.10;99.90;;;;;;6245992;22;20485;-76
2021/01/10 05:34:12;;;;;;;47.80;20.55;;;-7.10;99.90;;;;;;6244196;23;20004;-76
2021/01/10 05:36:38;;;;;;;48.90;21.80;;;-7.00;99.90;;;;;;6244031;23;19997;-76
2021/01/10 05:39:16;;;;;;;54.28;22.20;;;-7.00;99.90;;;;;;6245695;23;20027;-76
2021/01/10 05:42:04;;;;;;;53.50;19.77;;;-7.00;99.90;;;;;;6245623;22;20005;-75
2021/01/10 05:44:40;;;;;;;47.47;20.05;;;-7.00;99.90;;;;;;6246998;23;20000;-75
2021/01/10 05:47:08;;;;;;;47.42;20.88;;;-7.00;99.90;;;;;;6248741;23;19995;-76
2021/01/10 05:49:34;;;;;;;43.15;19.60;;;-7.00;99.90;;;;;;6246959;23;20408;-76
2021/01/10 05:52:08;;;;;;;52.55;21.42;;;-7.10;99.90;;;;;;6220050;23;20012;-76
2021/01/10 05:54:41;;;;;;;41.60;18.45;;;-7.10;99.90;;;;;;6221059;23;20099;-77
2021/01/10 05:57:11;;;;;;;48.17;19.50;;;-7.10;99.90;;;;;;6247881;23;20057;-76
2021/01/10 05:59:47;;;;;;;48.63;20.40;;;-7.00;99.90;;;;;;6220813;23;20384;-76
2021/01/10 06:02:14;;;;;;;68.22;22.35;;;-6.90;99.90;;;;;;6247761;22;20071;-76
2021/01/10 06:04:40;;;;;;;47.65;19.98;;;-6.90;99.90;;;;;;6220800;23;20008;-76
2021/01/10 06:07:06;;;;;;;56.53;22.70;;;-7.00;99.90;;;;;;6247747;23;20446;-76
2021/01/10 06:09:45;;;;;;;48.60;20.20;;;-7.00;99.90;;;;;;6221124;23;20351;-76
2021/01/10 06:12:21;;;;;;;60.13;22.08;;;-6.90;99.90;;;;;;6247685;22;20028;-76
2021/01/10 06:14:47;;;;;;;52.10;20.58;;;-6.90;99.90;;;;;;6247745;23;20007;-76
2021/01/10 06:17:15;;;;;;;47.67;21.67;;;-6.90;99.90;;;;;;6247677;23;20008;-76
2021/01/10 06:19:43;;;;;;;62.70;21.90;;;-6.90;99.90;;;;;;6247526;23;20027;-76
2021/01/10 06:22:17;;;;;;;62.65;23.00;;;-6.80;99.90;;;;;;6245938;22;20510;-76
2021/01/10 06:24:46;;;;;;;45.30;20.80;;;-6.80;99.90;;;;;;6248004;23;20000;-76
2021/01/10 06:27:20;;;;;;;57.53;23.20;;;-6.80;99.90;;;;;;6246083;22;20011;-76
2021/01/10 06:29:54;;;;;;;51.17;21.92;;;-6.80;99.90;;;;;;6247924;23;20007;-76
2021/01/10 06:32:23;;;;;;;56.55;22.17;;;-6.80;99.90;;;;;;6247572;22;20000;-76
2021/01/10 06:34:49;;;;;;;51.33;20.90;;;-6.80;99.90;;;;;;6247632;23;20453;-76
2021/01/10 06:37:16;;;;;;;57.72;21.83;;;-6.70;99.90;;;;;;6247473;23;20343;-76
2021/01/10 06:39:48;;;;;;;47.15;20.60;;;-6.70;99.90;;;;;;6247423;23;20361;-76
2021/01/10 06:42:14;;;;;;;;;;;-6.70;99.90;;;;;;6220979;23;20034;-76
2021/01/10 06:44:46;;;;;;;58.20;20.85;;;-6.60;99.90;;;;;;6220645;23;19903;-76
2021/01/10 06:47:17;;;;;;;56.17;21.05;;;-6.60;99.90;;;;;;6220629;23;20428;-76
2021/01/10 06:49:43;;;;;;;48.40;21.10;;;-6.50;99.90;;;;;;6220515;23;20019;-76
2021/01/10 06:52:10;;;;;;;57.67;22.17;;;-6.50;99.90;;;;;;6247191;22;20008;-76
2021/01/10 06:54:46;;;;;;;52.08;22.50;;;-6.50;99.90;;;;;;6247347;23;20030;-76
2021/01/10 06:57:13;;;;;;;56.90;21.98;;;-6.50;99.90;;;;;;6245732;23;20115;-76
2021/01/10 06:59:58;;;;;;;51.88;20.85;;;-6.50;99.90;;;;;;6247051;23;20339;-76
2021/01/10 07:02:25;;;;;;;62.10;22.38;;;-6.50;99.90;;;;;;6247062;22;20004;-76
2021/01/10 07:04:54;;;;;;;52.28;23.00;;;-6.50;99.90;;;;;;6245616;23;20435;-75
2021/01/10 07:07:36;;;;;;;57.17;22.38;;;-6.50;99.90;;;;;;6220311;23;20001;-76
2021/01/10 07:10:03;;;;;;;45.15;17.30;;;-6.40;99.90;;;;;;6245522;23;20004;-76
2021/01/10 07:12:29;;;;;;;53.80;21.23;;;-6.40;99.90;;;;;;6245534;22;20023;-76
2021/01/10 07:15:17;;;;;;;52.30;22.55;;;-6.40;99.90;;;;;;6220272;23;20343;-76
2021/01/10 07:18:09;;;;;;;60.17;21.35;;;-6.30;99.90;;;;;;6247022;23;20007;-76
2021/01/10 07:20:40;;;;;;;52.28;22.13;;;-6.30;99.90;;;;;;6247062;23;19996;-76
2021/01/10 07:23:26;;;;;;;44.93;18.73;;;-6.30;99.90;;;;;;6245419;23;20004;-76
2021/01/10 07:25:52;;;;;;;53.67;21.83;;;-6.30;99.90;;;;;;6247218;23;20000;-76
2021/01/10 07:28:40;;;;;;;53.42;23.10;;;-6.30;99.90;;;;;;6220179;23;20005;-76
2021/01/10 07:31:23;;;;;;;50.90;20.80;;;-6.30;99.90;;;;;;6246830;22;20005;-76
2021/01/10 07:34:08;;;;;;;58.15;23.13;;;-6.20;99.90;;;;;;6246897;23;20077;-76
2021/01/10 07:36:44;;;;;;;53.55;23.75;;;-6.20;99.90;;;;;;6246884;23;20083;-76
2021/01/10 07:39:10;;;;;;;60.00;28.83;;;-6.10;99.90;;;;;;6247157;23;20008;-75
2021/01/10 07:41:36;;;;;;;57.70;23.63;;;-6.00;99.90;;;;;;6246716;22;20000;-76
2021/01/10 07:44:01;;;;;;;55.28;22.10;;;-6.00;99.90;;;;;;6246820;23;20036;-77
2021/01/10 07:46:49;;;;;;;56.47;23.60;;;-6.00;99.90;;;;;;6247054;23;19996;-77
2021/01/10 07:49:18;;;;;;;53.92;22.00;;;-6.00;99.90;;;;;;6246725;23;20006;-77
2021/01/10 07:51:47;;;;;;;52.67;23.33;;;-6.00;99.90;;;;;;6246466;22;20019;-77
2021/01/10 07:54:13;;;;;;;55.97;23.48;;;-6.00;99.90;;;;;;6219774;23;20436;-77
2021/01/10 07:56:39;;;;;;;55.70;22.83;;;-5.90;99.90;;;;;;6245040;23;20012;-76
2021/01/10 07:59:15;;;;;;;49.55;23.02;;;-5.80;99.90;;;;;;6219900;23;20008;-76
2021/01/10 08:01:51;;;;;;;63.88;26.48;;;-5.70;99.90;;;;;;6244946;22;20149;-75
2021/01/10 08:04:33;;;;;;;50.63;23.40;;;-5.60;99.90;;;;;;6246686;23;20043;-74
2021/01/10 08:07:00;;;;;;;;;;;-5.50;99.90;;;;;;6245584;23;20011;-75
2021/01/10 08:09:31;;;;;;;48.40;19.98;;;-5.40;99.90;;;;;;6246850;23;19900;-76
2021/01/10 08:11:57;;;;;;;54.80;24.08;;;-5.30;99.90;;;;;;6246726;22;20000;-76
2021/01/10 08:14:22;;;;;;;69.57;31.83;;;-5.20;99.90;;;;;;6246038;23;20011;-74
2021/01/10 08:16:48;;;;;;;59.03;26.45;;;-5.00;99.90;;;;;;6219644;23;20089;-75
2021/01/10 08:19:15;;;;;;;61.50;27.52;;;-4.90;99.90;;;;;;6219444;23;20090;-74
2021/01/10 08:21:40;;;;;;;60.45;23.85;;;-4.80;99.90;;;;;;6246237;22;20000;-74
2021/01/10 08:24:06;;;;;;;55.83;24.83;;;-4.70;99.90;;;;;;6219551;23;20004;-74
2021/01/10 08:26:39;;;;;;;50.50;23.63;;;-4.60;99.90;;;;;;6219403;23;20000;-75
2021/01/10 08:29:08;;;;;;;52.30;22.60;;;-4.50;99.90;;;;;;6244695;23;20000;-74
2021/01/10 08:31:35;;;;;;;56.50;23.98;;;-4.40;99.90;;;;;;6246235;22;20015;-74
2021/01/10 08:34:13;;;;;;;56.05;26.63;;;-4.40;99.90;;;;;;6244693;22;20027;-74
2021/01/10 08:36:38;;;;;;;58.72;25.27;;;-4.30;99.90;;;;;;6244729;23;20011;-74
2021/01/10 08:39:09;;;;;;;64.45;26.92;;;-4.30;99.90;;;;;;6219344;23;20343;-74
2021/01/10 08:41:37;;;;;;;68.45;28.92;;;-4.30;99.90;;;;;;6244557;22;19996;-74
2021/01/10 08:44:14;;;;;;;60.55;27.10;;;-4.10;99.90;;;;;;6244738;23;20004;-74
2021/01/10 08:46:41;;;;;;;63.63;24.52;;;-4.00;99.90;;;;;;6246146;23;19996;-75
2021/01/10 08:49:07;;;;;;;60.78;25.52;;;-3.80;99.90;;;;;;6244664;23;20446;-74
2021/01/10 08:51:38;;;;;;;64.20;26.55;;;-3.70;99.90;;;;;;6245962;22;20012;-74
2021/01/10 08:54:24;;;;;;;73.72;29.88;;;-3.70;99.90;;;;;;6244580;23;20012;-75
2021/01/10 08:56:51;;;;;;;71.80;28.10;;;-3.60;99.90;;;;;;6246009;23;20005;-76
2021/01/10 08:59:19;;;;;;;69.10;27.05;;;-3.40;99.90;;;;;;6244420;23;20004;-75
2021/01/10 09:01:45;;;;;;;83.35;29.98;;;-3.30;99.90;;;;;;6245916;22;20071;-75
2021/01/10 09:04:12;;;;;;;75.50;31.83;;;-3.30;99.90;;;;;;6244471;23;20435;-75
2021/01/10 09:07:20;;;;;;;97.53;39.80;;;-3.20;99.90;;;;;;6244369;23;20001;-75
2021/01/10 09:09:58;;;;;;;76.68;31.77;;;-3.00;99.90;;;;;;6229545;23;20011;-74
2021/01/10 09:12:42;;;;;;;72.35;30.23;;;-2.80;99.90;;;;;;6246215;22;20462;-77
2021/01/10 09:15:31;;;;;;;72.18;30.48;;;-2.70;99.90;;;;;;6219994;23;20055;-74
2021/01/10 09:18:06;;;;;;;76.70;27.92;;;-2.60;99.90;;;;;;6245863;23;20005;-76
2021/01/10 09:20:39;;;;;;;74.97;29.88;;;-2.50;99.90;;;;;;6245475;23;20030;-77
2021/01/10 09:23:09;;;;;;;82.75;32.25;;;-2.60;99.90;;;;;;6245703;22;20076;-77
2021/01/10 09:25:35;;;;;;;75.72;31.73;;;-2.60;99.90;;;;;;6245772;23;20064;-77
2021/01/10 09:28:12;;;;;;;76.30;30.02;;;-2.70;99.90;;;;;;6219282;23;20011;-76
2021/01/10 09:30:40;;;;;;;83.78;31.00;;;-2.60;99.90;;;;;;6245781;23;20007;-76
2021/01/10 09:33:07;;;;;;;75.88;30.60;;;-2.50;99.90;;;;;;6244123;22;20008;-74
2021/01/10 09:35:44;;;;;;;77.38;30.83;;;-2.30;99.90;;;;;;6245788;23;20008;-74
2021/01/10 09:38:12;;;;;;;76.78;29.73;;;-2.30;99.90;;;;;;6246195;23;20007;-76
2021/01/10 09:40:37;;;;;;;67.00;27.88;;;-2.20;99.90;;;;;;6245691;23;20339;-76
2021/01/10 09:43:03;;;;;;;70.20;28.63;;;-2.10;99.90;;;;;;6245735;22;19996;-76
2021/01/10 09:45:36;;;;;;;56.00;21.88;;;-1.90;99.90;;;;;;6218876;23;20000;-76
2021/01/10 09:48:12;;;;;;;54.05;23.20;;;-1.60;99.90;;;;;;6245786;23;20000;-76
2021/01/10 09:50:38;;;;;;;55.63;23.88;;;-1.40;99.90;;;;;;6245866;23;20010;-76
2021/01/10 09:53:04;;;;;;;53.45;25.38;;;-1.20;99.90;;;;;;6242998;23;20419;-74
2021/01/10 09:55:45;;;;;;;56.15;24.13;;;-1.10;99.90;;;;;;6218912;23;20015;-76
2021/01/10 09:58:14;;;;;;;62.83;27.13;;;-1.00;99.90;;;;;;6218836;23;20508;-77
2021/01/10 10:00:54;;;;;;;71.18;29.27;;;-0.90;99.90;;;;;;6245608;23;20039;-76
2021/01/10 10:03:20;;;;;;;96.50;47.72;;;-0.70;99.90;;;;;;6245656;23;20003;-76
2021/01/10 10:05:56;;;;;;;65.18;30.95;;;-0.60;99.90;;;;;;6245509;23;20000;-76
2021/01/10 10:08:21;;;;;;;65.63;31.05;;;-0.40;99.90;;;;;;6245878;23;19996;-76
2021/01/10 10:10:47;;;;;;;68.30;32.40;;;-0.20;99.90;;;;;;6218581;22;20012;-75
2021/01/10 10:13:13;;;;;;;73.57;32.30;;;-0.20;99.90;;;;;;6245537;23;20010;-76
2021/01/10 10:15:43;;;;;;;74.70;31.95;;;-0.20;99.90;;;;;;6245464;23;20004;-76
2021/01/10 10:18:16;;;;;;;75.35;31.42;;;-0.10;99.90;;;;;;6245547;23;20004;-74
2021/01/10 10:20:42;;;;;;;72.03;30.30;;;-0.10;99.90;;;;;;6218533;22;20061;-77
2021/01/10 10:23:12;;;;;;;68.85;29.15;;;-0.20;99.90;;;;;;6243838;23;20000;-74
2021/01/10 10:25:39;;;;;;;82.07;35.45;;;-0.10;99.90;;;;;;6218639;23;20424;-74
2021/01/10 10:28:05;;;;;;;82.22;35.55;;;0.00;99.90;;;;;;6218578;23;20039;-74
2021/01/10 10:30:33;;;;;;;84.75;38.40;;;0.20;99.90;;;;;;6218646;23;20011;-77
2021/01/10 10:32:59;;;;;;;81.93;37.10;;;0.40;99.90;;;;;;6245430;22;20386;-77
2021/01/10 10:35:25;;;;;;;75.95;32.30;;;0.50;99.90;;;;;;6245914;23;20023;-76
2021/01/10 10:37:51;;;;;;;64.90;29.95;;;0.70;99.90;;;;;;6246663;23;19996;-76
2021/01/10 10:40:18;;;;;;;78.72;33.75;;;0.70;99.90;;;;;;6247316;23;20390;-77
2021/01/10 10:42:43;;;;;;;79.43;37.60;;;1.10;99.90;;;;;;6247580;22;20215;-77
2021/01/10 10:45:09;;;;;;;82.18;36.88;;;1.60;99.90;;;;;;6247714;23;20036;-75
2021/01/10 10:47:35;;;;;;;83.85;38.30;;;2.10;99.90;;;;;;6247275;23;20392;-75
2021/01/10 10:50:03;;;;;;;76.55;34.70;;;2.20;99.90;;;;;;6247350;23;20004;-75
2021/01/10 10:52:28;;;;;;;68.95;32.72;;;2.40;99.90;;;;;;6262553;22;20023;-76
2021/01/10 10:54:54;;;;;;;75.75;34.08;;;2.70;99.90;;;;;;6251551;22;20361;-76
2021/01/10 10:57:19;;;;;;;74.40;33.70;;;2.90;99.90;;;;;;6251576;22;20091;-76
2021/01/10 10:59:45;;;;;;;74.05;33.25;;;2.90;99.90;;;;;;6279414;22;20006;-76
2021/01/10 11:02:11;;;;;;;64.85;30.33;;;2.60;99.90;;;;;;6246954;23;19996;-77
2021/01/10 11:04:38;;;;;;;62.33;28.58;;;2.50;99.90;;;;;;6248144;23;20023;-76
2021/01/10 11:07:04;;;;;;;67.95;31.25;;;2.60;99.90;;;;;;6221445;23;20027;-76
2021/01/10 11:09:32;;;;;;;68.53;31.23;;;2.70;99.90;;;;;;6248697;23;20078;-76
2021/01/10 11:11:57;;;;;;;66.25;29.25;;;2.90;99.90;;;;;;6221461;23;20008;-75
2021/01/10 11:14:23;;;;;;;69.25;30.27;;;2.90;99.90;;;;;;6248629;23;20126;-75
2021/01/10 11:16:51;;;;;;;67.18;32.10;;;3.00;99.90;;;;;;6222634;23;20321;-75
2021/01/10 11:19:16;;;;;;;66.32;30.70;;;3.50;99.90;;;;;;6224537;23;20005;-75
2021/01/10 11:21:44;;;;;;;59.60;29.60;;;3.80;99.90;;;;;;6224705;23;20010;-75
2021/01/10 11:24:10;;;;;;;65.47;31.33;;;4.50;99.90;;;;;;6225057;23;20042;-74
2021/01/10 11:26:37;;;;;;;55.35;28.15;;;5.60;98.50;;;;;;6251794;23;20022;-75
2021/01/10 11:29:06;;;;;;;59.10;30.27;;;6.80;92.90;;;;;;6252424;23;20004;-75
2021/01/10 11:31:33;;;;;;;62.78;30.25;;;7.70;86.80;;;;;;6255109;23;19996;-75
2021/01/10 11:34:10;;;;;;;59.50;30.77;;;8.10;74.20;;;;;;6222363;23;20004;-74
2021/01/10 11:36:39;;;;;;;55.85;30.00;;;8.30;71.90;;;;;;6221430;23;20000;-75
2021/01/10 11:39:05;;;;;;;55.45;30.98;;;9.70;70.20;;;;;;6220707;23;20084;-75
2021/01/10 11:41:30;;;;;;;54.40;29.48;;;13.10;58.50;;;;;;6220650;23;20028;-76
2021/01/10 11:43:56;;;;;;;48.53;30.77;;;17.00;46.70;;;;;;6220297;23;20000;-72
2021/01/10 11:46:22;;;;;;;47.38;29.55;;;20.00;38.50;;;;;;6220392;23;20000;-72
2021/01/10 11:48:49;;;;;;;46.72;30.25;;;22.50;33.60;;;;;;6219682;23;20004;-72
2021/01/10 11:51:16;;;;;;;44.40;29.80;;;24.20;29.50;;;;;;6247177;23;20004;-72
2021/01/10 11:53:42;;;;;;;39.35;28.42;;;24.50;28.80;;;;;;6246926;23;20093;-69
2021/01/10 11:56:08;;;;;;;37.95;27.77;;;25.40;27.80;;;;;;6246860;23;20060;-71
2021/01/10 11:58:37;;;;;;;39.78;28.98;;;27.10;26.30;;;;;;6246937;23;20000;-73
2021/01/10 12:01:02;;;;;;;37.25;28.52;;;28.40;24.90;;;;;;6247233;23;20008;-74
2021/01/10 12:03:28;;;;;;;36.83;28.77;;;28.30;23.90;;;;;;6247016;23;20027;-74
2021/01/10 12:05:53;;;;;;;33.60;27.05;;;27.10;23.50;;;;;;6247455;23;20465;-74
2021/01/10 12:08:21;;;;;;;38.13;28.60;;;25.70;24.80;;;;;;6219965;23;20027;-74
2021/01/10 12:10:47;;;;;;;36.88;29.45;;;23.40;26.30;;;;;;6247216;23;20000;-75
2021/01/10 12:13:14;;;;;;;36.03;27.48;;;21.60;28.30;;;;;;6246842;23;20008;-74
2021/01/10 12:15:41;;;;;;;33.03;26.13;;;20.40;30.10;;;;;;6219838;23;20004;-74
2021/01/10 12:18:07;;;;;;;38.85;27.50;;;19.60;31.40;;;;;;6246929;23;20000;-75
2021/01/10 12:20:34;;;;;;;36.97;26.85;;;19.20;31.90;;;;;;6246650;23;20000;-75
2021/01/10 12:23:00;;;;;;;38.88;27.27;;;19.00;32.40;;;;;;6246555;23;20003;-74
2021/01/10 12:25:26;;;;;;;38.92;26.13;;;18.50;33.00;;;;;;6220150;23;20009;-74
2021/01/10 12:27:52;;;;;;;40.50;27.48;;;18.60;33.00;;;;;;6246661;23;20000;-74
2021/01/10 12:30:18;;;;;;;44.42;28.65;;;18.90;32.70;;;;;;6246935;23;20028;-74
2021/01/10 12:32:44;;;;;;;47.05;27.92;;;18.00;32.80;;;;;;6246691;23;20383;-74
2021/01/10 12:35:15;;;;;;;44.40;27.10;;;16.90;34.90;;;;;;6246922;23;20004;-73
2021/01/10 12:37:41;;;;;;;35.95;25.38;;;16.30;36.70;;;;;;6246949;23;20009;-73